Time;durP1;ratioP1;P1;durP2;ratioP2;P2;SDS_P1;SDS_P2;PMS_P1;PMS_P2;Temp;Humidity;BMP_temperature;BMP_pressure;BME280_temperature;BME280_humidity;BME280_pressure;Samples;Min_cycle;Max_cycle;Signal;HPM_P1;HPM_P2
2021/05/21 00:01:05;;;;;;;3.03;1.83;;;12.70;99.90;;;;;;3588535;40;20056;-85
2021/05/21 00:03:39;;;;;;;5.45;2.13;;;12.70;99.90;;;;;;3602646;39;20021;-83
2021/05/21 00:26:42;;;;;;;6.18;2.10;;;12.50;99.90;;;;;;3684626;23;20294;-85
2021/05/21 00:32:52;;;;;;;3.83;2.25;;;12.50;99.90;;;;;;5771514;23;22712;-86
2021/05/21 00:35:20;;;;;;;;;;;12.40;99.90;;;;;;3526921;40;20042;-85
2021/05/21 00:37:50;;;;;;;5.85;2.35;;;12.30;99.90;;;;;;3526979;40;19949;-84
2021/05/21 00:40:21;;;;;;;4.15;2.13;;;12.30;99.90;;;;;;3526466;40;20043;-85
2021/05/21 00:55:28;;;;;;;3.30;2.00;;;12.30;99.90;;;;;;4230822;23;20071;-84
2021/05/21 00:57:56;;;;;;;4.32;2.70;;;12.30;99.90;;;;;;3525607;40;20050;-82
2021/05/21 01:00:23;;;;;;;4.65;2.53;;;12.30;99.90;;;;;;3526320;40;20038;-84
2021/05/21 01:02:51;;;;;;;4.45;2.47;;;12.30;99.90;;;;;;3532654;40;20043;-84
2021/05/21 01:05:19;;;;;;;4.30;2.30;;;12.10;99.90;;;;;;3507999;40;20039;-85
2021/05/21 01:10:35;;;;;;;7.03;2.58;;;12.20;99.90;;;;;;3816797;23;20074;-84
2021/05/21 01:13:04;;;;;;;4.72;2.50;;;12.10;99.90;;;;;;3536136;40;20043;-83
2021/05/21 01:15:36;;;;;;;5.20;2.35;;;12.00;99.90;;;;;;3536116;40;20031;-82
2021/05/21 01:18:07;;;;;;;4.00;2.30;;;12.20;99.90;;;;;;3528378;40;20031;-83
2021/05/21 01:20:36;;;;;;;3.88;2.28;;;12.10;99.90;;;;;;3536520;40;20042;-84
2021/05/21 01:23:06;;;;;;;3.08;2.08;;;12.10;99.90;;;;;;3552964;40;20039;-84
2021/05/21 01:25:35;;;;;;;5.72;2.45;;;12.10;99.90;;;;;;3544743;40;20042;-87
2021/05/21 01:28:05;;;;;;;3.83;2.13;;;12.10;99.90;;;;;;3544434;40;20058;-83
2021/05/21 01:30:33;;;;;;;3.47;2.10;;;12.10;99.90;;;;;;3536444;40;20035;-83
2021/05/21 01:33:06;;;;;;;4.38;2.85;;;12.10;99.90;;;;;;3535960;40;20034;-84
2021/05/21 01:35:34;;;;;;;3.83;2.03;;;12.20;99.90;;;;;;3535893;40;20043;-84
2021/05/21 01:38:05;;;;;;;3.70;1.90;;;12.20;99.90;;;;;;3530313;40;20059;-87
2021/05/21 01:40:36;;;;;;;4.70;2.10;;;12.20;99.90;;;;;;3526379;40;20039;-85
2021/05/21 01:43:04;;;;;;;3.97;2.20;;;12.20;99.90;;;;;;3526539;40;20036;-86
2021/05/21 01:45:32;;;;;;;4.25;2.17;;;12.20;99.90;;;;;;3534495;40;20046;-85
2021/05/21 01:48:00;;;;;;;3.53;2.20;;;12.20;99.90;;;;;;3535473;40;20046;-82
2021/05/21 01:50:28;;;;;;;3.85;2.20;;;12.20;99.90;;;;;;3527489;40;20035;-86
2021/05/21 01:53:12;;;;;;;5.80;2.28;;;12.20;99.90;;;;;;3535343;40;20032;-85
2021/05/21 01:55:39;;;;;;;3.33;2.00;;;12.30;99.90;;;;;;3532107;40;20104;-83
2021/05/21 01:58:06;;;;;;;5.05;2.20;;;12.30;99.90;;;;;;3534314;40;20043;-84
2021/05/21 02:00:36;;;;;;;5.25;2.45;;;12.20;99.90;;;;;;3534244;40;20039;-87
2021/05/21 02:03:05;;;;;;;7.50;2.78;;;12.30;99.90;;;;;;3533310;40;20031;-86
2021/05/21 02:05:36;;;;;;;3.22;1.95;;;12.20;99.90;;;;;;3525609;40;20067;-82
2021/05/21 02:08:06;;;;;;;4.38;2.15;;;12.30;99.90;;;;;;3534338;40;20051;-84
2021/05/21 02:10:34;;;;;;;4.45;2.35;;;12.20;99.90;;;;;;3527924;40;20063;-83
2021/05/21 02:13:01;;;;;;;3.35;2.38;;;12.20;99.90;;;;;;3535928;40;20031;-83
2021/05/21 02:15:28;;;;;;;3.78;2.00;;;12.10;99.90;;;;;;3544028;40;20042;-82
2021/05/21 02:17:58;;;;;;;6.85;2.05;;;12.20;99.90;;;;;;3535790;40;20039;-82
2021/05/21 02:20:25;;;;;;;3.17;2.28;;;12.10;99.90;;;;;;3535676;40;20034;-83
2021/05/21 02:22:53;;;;;;;5.70;2.08;;;12.10;99.90;;;;;;3543967;40;20031;-84
2021/05/21 02:25:24;;;;;;;3.60;2.08;;;12.00;99.90;;;;;;3535037;40;20065;-84
2021/05/21 02:27:54;;;;;;;3.67;2.13;;;12.10;99.90;;;;;;3519173;40;20041;-83
2021/05/21 02:30:35;;;;;;;3.60;2.20;;;12.10;99.90;;;;;;3535632;40;20051;-84
2021/05/21 02:33:02;;;;;;;8.30;2.38;;;12.10;99.90;;;;;;3535802;40;20035;-82
2021/05/21 02:35:29;;;;;;;5.43;2.33;;;12.20;99.90;;;;;;3536718;40;20023;-81
2021/05/21 02:37:57;;;;;;;4.15;2.30;;;12.10;99.90;;;;;;3536824;40;20038;-82
2021/05/21 02:40:27;;;;;;;6.40;2.00;;;12.10;99.90;;;;;;3536240;40;20026;-86
2021/05/21 02:42:57;;;;;;;7.43;2.30;;;12.10;99.90;;;;;;3551569;40;20319;-83
2021/05/21 02:45:24;;;;;;;3.65;2.30;;;12.00;99.90;;;;;;3535274;40;20050;-83
2021/05/21 02:47:54;;;;;;;3.67;2.13;;;12.10;99.90;;;;;;3535770;40;20053;-85
2021/05/21 02:50:22;;;;;;;5.00;2.10;;;12.10;99.90;;;;;;3535707;40;20042;-85
2021/05/21 02:52:49;;;;;;;6.32;2.00;;;12.20;99.90;;;;;;3543590;40;20034;-84
2021/05/21 02:55:16;;;;;;;6.80;2.22;;;12.30;99.90;;;;;;3534967;40;20338;-86
2021/05/21 02:57:45;;;;;;;4.90;2.10;;;12.30;99.90;;;;;;3543593;40;20038;-85
2021/05/21 03:00:16;;;;;;;4.55;2.30;;;12.40;99.90;;;;;;3543360;40;20043;-86
2021/05/21 03:18:28;;;;;;;5.55;2.00;;;12.40;99.90;;;;;;5057202;23;20051;-85
2021/05/21 03:20:55;;;;;;;3.85;2.05;;;12.30;99.90;;;;;;3514762;40;20032;-81
2021/05/21 03:23:24;;;;;;;5.40;2.05;;;12.30;99.90;;;;;;3522709;40;20055;-86
2021/05/21 03:25:53;;;;;;;4.40;2.03;;;12.40;99.90;;;;;;3514417;40;20055;-85
2021/05/21 03:28:21;;;;;;;5.93;2.15;;;12.30;99.90;;;;;;3506553;41;20040;-85
2021/05/21 03:30:49;;;;;;;5.80;2.10;;;12.40;99.90;;;;;;3513900;41;20033;-85
2021/05/21 03:33:16;;;;;;;3.97;2.30;;;12.40;99.90;;;;;;3515730;40;20035;-87
2021/05/21 03:35:45;;;;;;;6.57;2.47;;;12.40;99.90;;;;;;3523928;40;20036;-83
2021/05/21 03:38:12;;;;;;;4.57;2.03;;;12.40;99.90;;;;;;3515506;40;20040;-84
2021/05/21 03:40:44;;;;;;;7.55;2.47;;;12.40;99.90;;;;;;3523713;40;20044;-85
2021/05/21 03:43:12;;;;;;;3.40;2.10;;;12.50;99.90;;;;;;3503637;41;20021;-84
2021/05/21 03:45:40;;;;;;;4.13;1.90;;;12.50;99.90;;;;;;3520670;40;20060;-85
2021/05/21 03:48:15;;;;;;;6.75;1.98;;;12.50;99.90;;;;;;3515895;40;20040;-83
2021/05/21 04:27:53;;;;;;;7.72;2.00;;;12.80;99.90;;;;;;3605277;23;20071;-84
2021/05/21 04:30:33;;;;;;;6.55;2.28;;;12.90;99.90;;;;;;3536049;40;20031;-84
2021/05/21 04:37:23;;;;;;;3.40;2.20;;;12.90;99.90;;;;;;3553062;40;20038;-84
2021/05/21 04:44:21;;;;;;;4.32;2.10;;;12.90;99.90;;;;;;3547456;40;20027;-85
2021/05/21 04:46:49;;;;;;;6.93;2.53;;;12.90;99.90;;;;;;3543569;40;20047;-81
2021/05/21 04:51:59;;;;;;;3.97;2.00;;;12.90;99.90;;;;;;3537377;40;20071;-83
2021/05/21 04:54:28;;;;;;;3.72;2.22;;;13.00;99.90;;;;;;3537236;40;20050;-84
2021/05/21 04:56:56;;;;;;;8.88;2.70;;;13.00;99.90;;;;;;3528670;40;20045;-83
2021/05/21 04:59:26;;;;;;;4.53;2.10;;;13.00;99.90;;;;;;3543628;40;20042;-84
2021/05/21 05:01:54;;;;;;;6.47;2.00;;;13.10;99.90;;;;;;3534614;40;20042;-85
2021/05/21 05:04:22;;;;;;;4.53;2.30;;;13.10;99.90;;;;;;3551474;40;20041;-83
2021/05/21 05:06:50;;;;;;;3.75;2.42;;;13.20;99.90;;;;;;3528363;40;20057;-84
2021/05/21 05:09:17;;;;;;;7.30;2.05;;;13.30;99.90;;;;;;3544293;40;20041;-83
2021/05/21 05:11:45;;;;;;;4.90;2.20;;;13.20;99.90;;;;;;3519848;40;20073;-84
2021/05/21 05:14:13;;;;;;;4.50;2.10;;;13.30;99.90;;;;;;3541229;40;20042;-88
2021/05/21 05:16:45;;;;;;;3.00;1.90;;;13.30;99.90;;;;;;3553926;40;20030;-84
2021/05/21 05:19:13;;;;;;;4.00;1.70;;;13.30;99.90;;;;;;3550579;40;20046;-83
2021/05/21 05:21:44;;;;;;;9.80;1.92;;;13.30;99.90;;;;;;3534066;40;20042;-85
2021/05/21 05:24:18;;;;;;;9.75;2.45;;;13.40;99.90;;;;;;3547088;40;20058;-86
2021/05/21 05:26:46;;;;;;;3.30;1.90;;;13.40;99.90;;;;;;3543110;40;20062;-85
2021/05/21 05:29:14;;;;;;;5.95;2.08;;;13.50;99.90;;;;;;3516064;40;20082;-83
2021/05/21 05:34:19;;;;;;;3.28;1.50;;;13.50;99.90;;;;;;3515737;40;20032;-83
2021/05/21 05:36:47;;;;;;;3.00;1.70;;;13.60;99.90;;;;;;3516794;40;20036;-83
2021/05/21 05:43:06;;;;;;;4.47;1.75;;;13.60;99.90;;;;;;3532373;40;20040;-82
2021/05/21 05:45:34;;;;;;;7.32;1.85;;;13.70;99.90;;;;;;3507352;40;20044;-83
2021/05/21 05:48:02;;;;;;;2.78;1.38;;;13.60;99.90;;;;;;3515917;40;20024;-84
2021/05/21 05:50:32;;;;;;;3.22;1.25;;;13.70;99.90;;;;;;3532391;40;20054;-83
2021/05/21 05:53:15;;;;;;;;;;;;;;;;;;;;;
2021/05/21 05:55:44;;;;;;;5.88;1.70;;;13.70;99.90;;;;;;3523851;40;20030;-81
2021/05/21 05:58:13;;;;;;;5.15;1.38;;;13.70;99.90;;;;;;3513582;40;20024;-85
2021/05/21 06:00:41;;;;;;;3.05;1.25;;;13.80;99.90;;;;;;3515466;41;20040;-82
2021/05/21 06:03:11;;;;;;;3.80;1.40;;;13.80;99.90;;;;;;3507652;40;20039;-84
2021/05/21 06:05:40;;;;;;;2.53;1.20;;;13.90;99.90;;;;;;3514224;41;20029;-83
2021/05/21 06:08:25;;;;;;;2.77;1.50;;;14.00;99.90;;;;;;3628399;23;20107;31
2021/05/21 06:10:57;;;;;;;4.30;1.40;;;14.00;99.90;;;;;;3522261;40;20308;-88
2021/05/21 06:16:50;;;;;;;6.22;1.30;;;14.10;99.90;;;;;;3520845;40;19946;-86
2021/05/21 06:19:18;;;;;;;3.08;1.50;;;14.30;99.90;;;;;;3514465;41;20036;-86
2021/05/21 06:21:49;;;;;;;4.75;1.17;;;14.20;99.90;;;;;;3504843;41;20037;-86
2021/05/21 06:24:17;;;;;;;2.63;0.82;;;14.20;99.90;;;;;;3512991;40;20041;-84
2021/05/21 06:29:41;;;;;;;4.18;1.20;;;14.20;99.90;;;;;;3502189;41;20078;-85
2021/05/21 06:46:40;;;;;;;2.08;1.33;;;14.70;99.90;;;;;;4017901;22;20075;-85
2021/05/21 06:50:10;;;;;;;3.20;1.30;;;14.60;99.90;;;;;;3535217;40;20042;-87
2021/05/21 06:52:38;;;;;;;4.95;1.38;;;14.80;99.90;;;;;;3534651;40;20054;-87
2021/05/21 06:55:07;;;;;;;7.97;1.30;;;14.90;99.60;;;;;;3535137;40;20042;-84
2021/05/21 06:57:35;;;;;;;;;;;15.00;99.70;;;;;;3535510;40;20046;-83
2021/05/21 07:00:04;;;;;;;10.73;1.48;;;15.20;99.00;;;;;;3537899;40;19978;-80
2021/05/21 07:02:35;;;;;;;6.05;1.15;;;15.10;99.00;;;;;;3528162;40;20079;-78
2021/05/21 07:05:03;;;;;;;2.17;0.90;;;15.10;98.70;;;;;;3531443;40;20090;-83
2021/05/21 07:07:33;;;;;;;4.57;1.15;;;15.00;98.90;;;;;;3526931;40;20059;-79
2021/05/21 07:10:01;;;;;;;2.20;1.02;;;15.00;99.30;;;;;;3539393;40;20055;-83
2021/05/21 07:13:08;;;;;;;3.72;1.17;;;15.20;98.90;;;;;;3535479;40;20026;-84
2021/05/21 07:15:40;;;;;;;2.67;1.10;;;15.30;98.40;;;;;;3536841;40;20039;-83
2021/05/21 07:18:18;;;;;;;2.80;1.30;;;15.50;97.60;;;;;;3536159;40;20034;-84
2021/05/21 08:07:00;;;;;;;4.40;1.30;;;15.80;95.80;;;;;;4491648;23;20067;-83
2021/05/21 08:09:27;;;;;;;3.45;1.60;;;16.10;94.90;;;;;;3547106;40;20038;-83
2021/05/21 08:12:00;;;;;;;2.25;1.23;;;16.40;94.30;;;;;;3548970;40;20059;-85
2021/05/21 08:14:56;;;;;;;1.63;0.80;;;16.80;93.50;;;;;;3545334;40;20070;-82
2021/05/21 08:17:25;;;;;;;3.45;1.20;;;16.70;92.70;;;;;;3540927;40;20071;-82
2021/05/21 08:19:53;;;;;;;4.30;1.10;;;16.80;91.80;;;;;;3523718;40;20043;-86
2021/05/21 08:22:21;;;;;;;3.08;1.00;;;16.80;90.30;;;;;;3528045;40;20039;-83
2021/05/21 08:24:48;;;;;;;2.10;0.82;;;16.80;86.40;;;;;;3523808;40;20046;-83
2021/05/21 08:27:16;;;;;;;6.72;1.05;;;16.80;84.70;;;;;;3522579;40;20035;-81
2021/05/21 08:29:51;;;;;;;1.17;0.80;;;16.90;80.90;;;;;;3522703;40;20079;-85
2021/05/21 08:32:19;;;;;;;4.15;0.75;;;16.90;81.60;;;;;;3533365;40;20051;-83
2021/05/21 08:34:46;;;;;;;3.13;0.93;;;17.00;77.50;;;;;;3525412;40;20046;-84
2021/05/21 08:37:14;;;;;;;5.57;0.60;;;17.00;77.60;;;;;;3532718;40;20058;-84
2021/05/21 08:39:44;;;;;;;;;;;17.00;75.90;;;;;;3531262;40;20071;-84
2021/05/21 08:42:11;;;;;;;0.95;0.55;;;16.90;77.00;;;;;;3524210;40;20000;-87
2021/05/21 08:45:13;;;;;;;2.42;1.00;;;17.10;75.90;;;;;;3516541;40;20046;-82
2021/05/21 08:47:51;;;;;;;2.88;0.80;;;17.20;72.70;;;;;;3507962;41;20065;-84
2021/05/21 08:50:29;;;;;;;1.20;0.57;;;17.20;72.30;;;;;;3509955;41;20085;-84
2021/05/21 08:53:23;;;;;;;3.95;0.70;;;17.00;70.40;;;;;;3495661;41;20083;-84
2021/05/21 08:59:37;;;;;;;2.25;0.77;;;17.10;71.10;;;;;;3474655;41;20065;-85
2021/05/21 09:02:10;;;;;;;2.80;0.90;;;17.20;71.50;;;;;;3474844;41;20154;-83
2021/05/21 09:04:46;;;;;;;4.50;0.80;;;17.40;71.40;;;;;;3483239;41;20100;-84
2021/05/21 09:07:24;;;;;;;2.45;1.08;;;17.70;71.10;;;;;;3468971;41;20062;-85
2021/05/21 09:25:47;;;;;;;2.08;0.73;;;17.70;69.30;;;;;;3851738;23;20060;-84
2021/05/21 09:28:37;;;;;;;6.13;1.88;;;17.80;69.50;;;;;;3515284;40;20043;-85
2021/05/21 09:34:57;;;;;;;2.67;1.00;;;18.00;68.60;;;;;;5195384;23;20044;-90
2021/05/21 09:37:26;;;;;;;2.40;0.70;;;17.90;70.00;;;;;;3542252;40;20039;-85
2021/05/21 09:40:05;;;;;;;3.55;0.93;;;17.90;69.80;;;;;;3888351;23;20075;-84
2021/05/21 09:42:51;;;;;;;;;;;18.20;69.30;;;;;;3542621;40;20043;-85
2021/05/21 09:51:14;;;;;;;2.78;0.70;;;18.00;70.10;;;;;;4130647;23;20050;-87
2021/05/21 10:03:46;;;;;;;6.18;0.90;;;19.10;68.40;;;;;;3523360;40;20052;-85
2021/05/21 10:06:20;;;;;;;2.05;0.80;;;19.00;67.60;;;;;;3528632;40;20050;-86
2021/05/21 10:08:48;;;;;;;1.85;0.63;;;18.70;68.40;;;;;;3594403;23;20040;-86
2021/05/21 10:11:18;;;;;;;2.72;0.85;;;18.60;68.20;;;;;;3548573;40;20035;-86
2021/05/21 10:13:46;;;;;;;2.80;0.90;;;18.50;68.70;;;;;;3543142;40;20034;-85
2021/05/21 10:19:05;;;;;;;3.08;0.77;;;18.90;68.20;;;;;;3532578;40;20032;-85
2021/05/21 10:21:34;;;;;;;4.85;0.80;;;19.00;67.00;;;;;;3541143;40;20039;-87
2021/05/21 10:24:15;;;;;;;3.30;0.90;;;18.80;66.70;;;;;;3628313;23;20582;-88
2021/05/21 10:26:45;;;;;;;3.42;0.82;;;18.70;65.00;;;;;;3522903;41;20045;-86
2021/05/21 10:29:21;;;;;;;1.17;0.63;;;18.60;65.40;;;;;;3521111;41;20043;-82
2021/05/21 10:31:51;;;;;;;3.53;0.80;;;18.50;64.40;;;;;;3523007;40;20056;-82
2021/05/21 10:34:20;;;;;;;2.58;0.80;;;18.80;64.20;;;;;;3521299;40;20460;-84
2021/05/21 10:37:24;;;;;;;1.02;0.55;;;18.90;63.00;;;;;;3517146;40;20311;-80
2021/05/21 10:40:13;;;;;;;3.45;0.98;;;19.00;61.40;;;;;;3512101;41;20316;-79
2021/05/21 10:42:59;;;;;;;4.97;0.70;;;19.30;61.20;;;;;;3528361;40;20040;-80
2021/05/21 10:45:53;;;;;;;4.25;0.70;;;19.60;60.90;;;;;;3507275;41;20103;-81
2021/05/21 10:48:27;;;;;;;4.68;0.70;;;19.20;59.30;;;;;;3512396;41;20064;-84
2021/05/21 10:51:10;;;;;;;7.70;0.77;;;19.30;58.10;;;;;;3503679;41;20052;-84
2021/05/21 10:53:46;;;;;;;3.08;0.80;;;19.90;57.90;;;;;;3514451;41;20332;-88
2021/05/21 10:56:15;;;;;;;2.13;0.80;;;20.60;55.80;;;;;;3512938;41;20040;-85
2021/05/21 10:58:44;;;;;;;2.17;0.77;;;20.90;54.60;;;;;;3519020;41;20060;-88
2021/05/21 11:01:23;;;;;;;1.63;0.70;;;21.30;52.00;;;;;;3508803;41;20379;-85
2021/05/21 11:04:09;;;;;;;3.10;1.05;;;21.60;51.60;;;;;;3510545;41;20096;-84
2021/05/21 11:06:50;;;;;;;15.85;1.67;;;21.50;51.70;;;;;;3503843;41;20100;-87
2021/05/21 11:09:22;;;;;;;2.40;0.90;;;21.90;51.30;;;;;;3506006;41;20096;-83
2021/05/21 11:11:59;;;;;;;1.33;0.63;;;21.50;51.80;;;;;;3512462;41;20375;-84
2021/05/21 11:14:45;;;;;;;5.43;0.80;;;21.10;52.90;;;;;;3506783;41;20076;-87
2021/05/21 11:17:22;;;;;;;3.63;0.70;;;21.90;51.90;;;;;;3512577;40;20059;-86
2021/05/21 11:19:54;;;;;;;1.77;0.90;;;21.40;52.40;;;;;;3511322;41;20032;-86
2021/05/21 11:22:30;;;;;;;7.97;0.95;;;21.60;52.70;;;;;;3517685;41;20104;-86
2021/05/21 11:25:01;;;;;;;1.98;0.40;;;21.20;52.60;;;;;;3524819;40;20056;-84
2021/05/21 11:27:29;;;;;;;1.45;0.75;;;20.10;54.70;;;;;;3519208;40;20028;-85
2021/05/21 11:29:57;;;;;;;6.25;0.80;;;19.80;54.40;;;;;;3524096;40;20035;-80
2021/05/21 11:32:28;;;;;;;3.28;0.47;;;19.50;56.00;;;;;;3528707;40;20071;-82
2021/05/21 11:34:55;;;;;;;7.00;1.20;;;19.40;56.10;;;;;;3514744;40;20441;-85
2021/05/21 11:37:25;;;;;;;5.20;0.90;;;19.50;57.20;;;;;;3513395;40;20084;-85
2021/05/21 11:39:54;;;;;;;2.83;1.00;;;20.30;55.10;;;;;;3529382;40;20095;-84
2021/05/21 11:42:25;;;;;;;3.05;0.63;;;20.30;53.70;;;;;;3523999;40;20100;-83
2021/05/21 11:44:56;;;;;;;2.03;0.70;;;19.90;54.50;;;;;;3530265;40;20056;-83
2021/05/21 11:47:25;;;;;;;2.95;0.60;;;19.70;54.70;;;;;;3517742;40;20058;-83
2021/05/21 11:49:54;;;;;;;11.60;0.85;;;20.30;54.10;;;;;;3520367;40;20084;-84
2021/05/21 11:52:22;;;;;;;7.93;1.33;;;20.70;53.40;;;;;;3521902;40;20058;-83
2021/05/21 11:54:56;;;;;;;2.63;0.90;;;20.60;52.20;;;;;;3517535;40;20057;-86
2021/05/21 11:57:30;;;;;;;1.55;0.50;;;21.20;52.40;;;;;;3531279;40;20047;-83
2021/05/21 12:00:00;;;;;;;3.22;0.60;;;20.80;51.40;;;;;;3516752;40;20028;-84
2021/05/21 12:02:30;;;;;;;5.00;1.00;;;20.00;53.70;;;;;;3523875;40;20035;-84
2021/05/21 12:04:57;;;;;;;5.22;1.20;;;20.00;54.70;;;;;;3522221;40;20063;-84
2021/05/21 12:07:26;;;;;;;1.08;0.40;;;20.50;52.80;;;;;;3539058;40;20035;-83
2021/05/21 12:10:02;;;;;;;2.22;0.70;;;20.70;52.30;;;;;;3532441;40;20062;-85
2021/05/21 12:12:30;;;;;;;4.07;0.80;;;20.60;52.00;;;;;;3527398;40;20095;-84
2021/05/21 12:15:08;;;;;;;2.03;0.90;;;20.80;51.10;;;;;;3530755;40;20054;-86
2021/05/21 12:17:37;;;;;;;6.00;0.70;;;20.30;52.60;;;;;;3520535;40;20083;-85
2021/05/21 12:20:07;;;;;;;3.40;0.60;;;21.30;49.80;;;;;;3531854;40;20066;-84
2021/05/21 12:22:35;;;;;;;2.33;0.90;;;20.80;50.70;;;;;;3522199;40;20367;-87
2021/05/21 12:25:20;;;;;;;1.58;0.50;;;21.50;49.80;;;;;;3532455;40;20086;-86
2021/05/21 12:27:47;;;;;;;3.63;0.82;;;22.10;48.30;;;;;;3531925;40;20147;-87
2021/05/21 12:30:18;;;;;;;4.65;0.70;;;21.80;47.50;;;;;;3521289;40;20080;-84
2021/05/21 12:32:49;;;;;;;0.60;0.43;;;22.30;45.60;;;;;;3511719;40;20156;-85
2021/05/21 12:35:18;;;;;;;3.47;0.60;;;21.90;46.40;;;;;;3515583;40;20076;-85
2021/05/21 12:37:54;;;;;;;3.53;0.70;;;22.40;46.00;;;;;;3512981;40;20084;-83
2021/05/21 12:40:23;;;;;;;2.60;0.80;;;22.00;46.70;;;;;;3512031;40;20064;-86
2021/05/21 12:42:53;;;;;;;2.30;0.47;;;22.10;46.60;;;;;;3513235;40;20068;-85
2021/05/21 12:45:20;;;;;;;2.50;0.70;;;22.00;45.90;;;;;;3506469;40;20092;-83
2021/05/21 12:47:55;;;;;;;2.28;0.60;;;21.90;45.70;;;;;;3517140;40;20064;-84
2021/05/21 12:50:25;;;;;;;1.45;0.60;;;21.30;47.40;;;;;;3521289;40;20096;-85
2021/05/21 12:52:57;;;;;;;1.77;0.52;;;21.60;46.60;;;;;;3512817;40;20068;-79
2021/05/21 12:55:32;;;;;;;2.63;0.70;;;21.20;46.90;;;;;;3507879;40;20068;-85
2021/05/21 12:58:00;;;;;;;1.90;0.98;;;21.40;47.10;;;;;;3504946;40;20107;-87
2021/05/21 13:00:27;;;;;;;4.18;0.90;;;21.80;46.60;;;;;;3516566;40;20092;-86
2021/05/21 13:02:59;;;;;;;2.97;0.80;;;23.00;45.60;;;;;;3518434;40;20080;-87
2021/05/21 13:05:28;;;;;;;5.05;0.82;;;24.20;42.60;;;;;;3521136;40;20107;-87
2021/05/21 13:07:57;;;;;;;3.45;0.80;;;23.50;41.90;;;;;;3505392;40;20308;-86
2021/05/21 13:10:27;;;;;;;2.45;0.82;;;23.60;42.10;;;;;;3518871;40;20083;-84
2021/05/21 13:12:58;;;;;;;3.00;0.63;;;24.50;40.90;;;;;;3522733;40;20044;-86
2021/05/21 13:15:27;;;;;;;2.00;0.65;;;23.70;40.50;;;;;;3514221;40;20068;-86
2021/05/21 13:17:57;;;;;;;1.67;0.70;;;23.80;41.30;;;;;;3510929;40;20079;-86
2021/05/21 13:20:27;;;;;;;3.53;0.88;;;25.30;39.50;;;;;;3515725;40;20087;-86
2021/05/21 13:22:57;;;;;;;3.78;1.48;;;24.30;38.90;;;;;;3515385;40;20092;-86
2021/05/21 13:25:26;;;;;;;1.80;0.60;;;23.60;39.80;;;;;;3509739;40;20102;-85
2021/05/21 13:27:58;;;;;;;2.33;0.82;;;22.90;41.70;;;;;;3526677;40;20079;-87
2021/05/21 13:30:28;;;;;;;3.47;0.88;;;23.50;41.40;;;;;;3518908;40;20355;-83
2021/05/21 13:32:56;;;;;;;5.85;0.90;;;24.50;39.90;;;;;;3519194;40;20072;-84
2021/05/21 13:35:24;;;;;;;4.82;0.82;;;25.60;39.10;;;;;;3506388;40;20099;-83
2021/05/21 13:37:51;;;;;;;6.57;0.75;;;25.30;38.30;;;;;;3519490;40;20079;-85
2021/05/21 13:40:19;;;;;;;5.53;0.73;;;25.90;37.40;;;;;;3510647;40;20134;-86
2021/05/21 13:42:46;;;;;;;0.98;0.47;;;26.20;36.60;;;;;;3509426;40;20064;-85
2021/05/21 13:45:15;;;;;;;3.40;0.88;;;23.60;38.30;;;;;;3516567;40;20088;-86
2021/05/21 13:47:46;;;;;;;3.17;1.08;;;23.10;39.30;;;;;;3518926;40;20072;-87
2021/05/21 13:50:14;;;;;;;1.98;0.90;;;22.20;41.40;;;;;;3519994;40;20076;-87
2021/05/21 13:52:41;;;;;;;5.88;1.17;;;22.40;42.20;;;;;;3519880;40;20059;-87
2021/05/21 13:55:10;;;;;;;6.18;0.93;;;22.40;41.20;;;;;;3526671;40;20412;-87
2021/05/21 13:57:37;;;;;;;2.33;0.60;;;23.00;40.20;;;;;;3502730;40;20403;-88
2021/05/21 14:00:10;;;;;;;3.38;0.70;;;23.30;39.80;;;;;;3529639;40;20059;-87
2021/05/21 14:02:39;;;;;;;1.40;0.40;;;22.50;40.80;;;;;;3523270;40;20076;-86
2021/05/21 14:05:09;;;;;;;2.00;0.90;;;22.30;40.90;;;;;;3529519;40;20083;-86
2021/05/21 14:07:36;;;;;;;2.33;0.80;;;21.80;41.90;;;;;;3521253;40;20391;-86
2021/05/21 14:10:09;;;;;;;2.50;0.90;;;22.30;41.70;;;;;;3507989;40;20087;-88
2021/05/21 14:12:38;;;;;;;3.03;0.40;;;23.20;40.20;;;;;;3514192;40;20079;-85
2021/05/21 14:15:09;;;;;;;3.72;0.90;;;22.80;39.40;;;;;;3526488;40;20083;-84
2021/05/21 14:17:36;;;;;;;1.52;0.93;;;22.30;40.90;;;;;;3517501;40;20138;-85
2021/05/21 14:20:05;;;;;;;3.35;0.90;;;22.90;40.70;;;;;;3522164;40;20079;-87
2021/05/21 14:22:38;;;;;;;3.25;0.93;;;23.40;39.00;;;;;;3521040;40;20383;-86
2021/05/21 14:25:10;;;;;;;4.28;1.08;;;23.40;39.00;;;;;;3517758;40;20083;-84
2021/05/21 14:27:40;;;;;;;1.92;0.80;;;24.40;38.80;;;;;;3513004;40;20080;-86
2021/05/21 14:30:09;;;;;;;3.03;0.93;;;23.60;37.90;;;;;;3515852;40;20063;-86
2021/05/21 14:32:37;;;;;;;4.75;0.82;;;22.60;40.10;;;;;;3521019;40;20060;-84
2021/05/21 14:35:09;;;;;;;4.22;0.70;;;23.60;39.30;;;;;;3520814;40;20048;-85
2021/05/21 14:37:40;;;;;;;1.83;0.68;;;23.10;39.60;;;;;;3517039;40;20091;-83
2021/05/21 14:40:07;;;;;;;;;;;23.30;40.10;;;;;;3524761;40;20076;-86
2021/05/21 14:42:38;;;;;;;3.22;1.13;;;23.20;40.20;;;;;;3514227;40;20179;-87
2021/05/21 14:45:07;;;;;;;9.02;1.02;;;22.70;41.20;;;;;;3507264;40;20083;-85
2021/05/21 14:47:35;;;;;;;3.92;1.08;;;22.50;41.80;;;;;;3506488;40;20100;-85
2021/05/21 14:50:03;;;;;;;1.73;0.60;;;23.20;41.10;;;;;;3513427;40;20095;-85
2021/05/21 14:52:31;;;;;;;11.35;1.10;;;22.30;40.70;;;;;;3516464;40;20423;-88
2021/05/21 14:55:00;;;;;;;4.38;1.05;;;22.00;41.70;;;;;;3502661;40;20395;-89
2021/05/21 14:57:28;;;;;;;2.63;0.80;;;21.20;43.00;;;;;;3508092;41;20080;-85
2021/05/21 14:59:58;;;;;;;1.75;0.75;;;20.80;43.40;;;;;;3493189;41;20085;-85
2021/05/21 15:02:35;;;;;;;4.38;1.10;;;21.60;43.10;;;;;;3508025;41;20111;-82
2021/05/21 15:05:09;;;;;;;4.10;0.80;;;23.40;40.90;;;;;;3503344;40;20064;-84
2021/05/21 15:07:39;;;;;;;4.70;0.95;;;23.00;41.10;;;;;;3515300;40;20095;-88
2021/05/21 15:10:11;;;;;;;5.40;0.90;;;22.20;43.00;;;;;;3505853;40;20083;-87
2021/05/21 15:12:38;;;;;;;7.57;1.00;;;22.10;42.50;;;;;;3508575;40;20080;-86
2021/05/21 15:15:11;;;;;;;1.55;0.57;;;22.60;42.40;;;;;;3514390;40;20079;-86
2021/05/21 15:17:58;;;;;;;2.92;0.80;;;21.70;42.70;;;;;;3518210;40;20072;-84
2021/05/21 15:25:58;;;;;;;7.05;1.27;;;20.00;45.80;;;;;;3519441;40;20085;-90
2021/05/21 15:28:25;;;;;;;7.40;1.35;;;20.70;44.70;;;;;;3538844;40;20395;-87
2021/05/21 15:30:56;;;;;;;9.57;1.10;;;20.50;45.30;;;;;;3522995;40;20092;-86
2021/05/21 15:33:25;;;;;;;6.50;0.90;;;20.90;45.00;;;;;;3538194;40;20091;-84
2021/05/21 15:35:53;;;;;;;5.13;1.13;;;20.70;45.20;;;;;;3522701;40;20066;-85
2021/05/21 15:38:20;;;;;;;7.88;1.17;;;20.20;46.60;;;;;;3519382;40;20087;-85
2021/05/21 15:40:50;;;;;;;4.80;1.13;;;21.00;46.00;;;;;;3515709;40;20093;-86
2021/05/21 15:46:09;;;;;;;;;;;21.70;43.50;;;;;;3529614;40;20046;-85
2021/05/21 15:48:38;;;;;;;4.32;0.90;;;21.70;43.80;;;;;;3535923;40;19990;-85
2021/05/21 15:51:11;;;;;;;2.83;0.85;;;21.70;43.70;;;;;;3521876;40;20065;-84
2021/05/21 15:53:49;;;;;;;7.03;0.90;;;21.40;44.00;;;;;;3529420;40;20076;-86
2021/05/21 15:59:06;;;;;;;6.38;1.45;;;20.60;45.00;;;;;;3524480;40;20284;-85
2021/05/21 16:01:35;;;;;;;2.25;0.63;;;20.10;46.50;;;;;;3524501;40;20042;-91
2021/05/21 16:04:05;;;;;;;4.15;1.05;;;19.90;46.80;;;;;;3533021;40;20040;-86
2021/05/21 16:06:33;;;;;;;2.80;0.85;;;20.50;46.10;;;;;;3523573;40;20046;-85
2021/05/21 16:09:04;;;;;;;3.30;1.30;;;21.10;44.30;;;;;;3519334;40;20419;-87
2021/05/21 16:11:34;;;;;;;4.90;1.00;;;21.00;43.90;;;;;;3530411;40;20060;-83
2021/05/21 16:14:03;;;;;;;4.07;0.98;;;20.60;44.40;;;;;;3517849;40;20039;-84
2021/05/21 16:16:30;;;;;;;;;;;19.90;46.10;;;;;;3542184;40;20272;-83
2021/05/21 16:18:59;;;;;;;8.23;1.52;;;19.80;46.10;;;;;;3533195;40;19950;-85
2021/05/21 16:21:29;;;;;;;4.32;1.10;;;19.80;46.60;;;;;;3523108;40;20035;-84
2021/05/21 16:23:59;;;;;;;2.67;1.13;;;19.80;46.70;;;;;;3523349;40;20046;-86
2021/05/21 16:26:28;;;;;;;2.45;0.95;;;20.20;45.60;;;;;;3539033;40;20051;-87
2021/05/21 16:28:57;;;;;;;6.05;1.00;;;20.60;44.70;;;;;;3522075;40;20041;-85
2021/05/21 16:31:31;;;;;;;4.63;1.40;;;20.60;44.20;;;;;;3531117;40;20068;-85
2021/05/21 16:34:00;;;;;;;4.40;1.30;;;20.00;45.60;;;;;;3541637;40;20035;-83
2021/05/21 16:36:27;;;;;;;4.03;1.20;;;19.60;46.70;;;;;;3527769;40;20072;-87
2021/05/21 16:38:56;;;;;;;4.85;1.27;;;19.60;46.60;;;;;;3529892;40;20094;-85
2021/05/21 16:41:33;;;;;;;4.80;1.10;;;19.40;46.90;;;;;;3528168;40;20517;-88
2021/05/21 16:44:08;;;;;;;4.78;0.98;;;19.40;46.60;;;;;;3528359;40;20055;-86
2021/05/21 16:46:36;;;;;;;2.25;0.82;;;20.20;45.50;;;;;;3522550;40;20083;-87
2021/05/21 16:49:04;;;;;;;4.47;1.10;;;21.00;43.70;;;;;;3519106;40;20379;-79
2021/05/21 16:51:33;;;;;;;6.10;1.15;;;20.90;44.30;;;;;;3522689;40;20091;-81
2021/05/21 16:54:01;;;;;;;3.70;0.77;;;20.40;44.30;;;;;;3528057;40;20111;-81
2021/05/21 16:56:30;;;;;;;8.93;1.00;;;20.40;44.20;;;;;;3517437;40;20095;-83
2021/05/21 16:59:00;;;;;;;4.63;1.40;;;20.10;45.90;;;;;;3526637;40;20302;-81
2021/05/21 17:01:27;;;;;;;4.30;1.58;;;20.50;44.70;;;;;;3522139;40;20292;-80